| Date | Time | Temp. (oF) | Dew Point (oF) | Rel. Hum. (%) | Press. (in.) | Wind Dir. | Wind Speed (mph) | Hourly Rainfall (in.) |
|
|---|---|---|---|---|---|---|---|---|---|
| 1 | 04/03 | 00:00 | 61 | 52 | 73 | 29.83 | SSW | 9 | 0.00 |
| 2 | 04/02 | 23:00 | 61 | 52 | 73 | 29.85 | S | 15 | 0.00 |
| 3 | 04/02 | 22:00 | 60 | 52 | 76 | 29.86 | SSE | 10 | 0.00 |
| 4 | 04/02 | 21:00 | 60 | 49 | 68 | 29.88 | S | 10 | 0.00 |
| 5 | 04/02 | 20:00 | 61 | 49 | 66 | 29.89 | SSW | 8 | 0.00 |
| 6 | 04/02 | 19:00 | 61 | 49 | 67 | 29.89 | S | 14 | 0.00 |
| 7 | 04/02 | 18:00 | 62 | 48 | 62 | 29.90 | SE | 7 | 0.00 |
| 8 | 04/02 | 17:00 | 62 | 46 | 56 | 29.91 | SSE | 11 | 0.00 |
| 9 | 04/02 | 16:00 | 63 | 43 | 49 | 29.91 | SSE | 13 | 0.00 |
| 10 | 04/02 | 15:00 | 63 | 41 | 45 | 29.93 | S | 15 | 0.00 |
| 11 | 04/02 | 14:00 | 62 | 37 | 41 | 29.96 | S | 20 | 0.00 |
| 12 | 04/02 | 13:00 | 60 | 34 | 38 | 30.00 | S | 17 | 0.00 |
| 13 | 04/02 | 12:00 | 59 | 35 | 41 | 30.04 | S | 14 | 0.00 |
| 14 | 04/02 | 11:00 | 55 | 34 | 46 | 30.09 | SSE | 9 | 0.00 |
| 15 | 04/02 | 10:00 | 53 | 32 | 46 | 30.12 | S | 11 | 0.00 |
| 16 | 04/02 | 09:00 | 49 | 29 | 47 | 30.15 | S | 4 | 0.00 |
| 17 | 04/02 | 08:00 | 44 | 34 | 68 | 30.16 | SSW | 3 | 0.00 |
| 18 | 04/02 | 07:00 | 39 | 35 | 86 | 30.15 | ENE | 1 | 0.00 |
| 19 | 04/02 | 06:00 | 39 | 34 | 83 | 30.14 | NNE | 0 | 0.00 |
| 20 | 04/02 | 05:00 | 39 | 33 | 81 | 30.12 | SSW | 1 | 0.00 |
| 21 | 04/02 | 04:00 | 38 | 32 | 82 | 30.09 | S | 1 | 0.00 |
| 22 | 04/02 | 03:00 | 37 | 32 | 84 | 30.08 | N | 1 | 0.00 |
| 23 | 04/02 | 02:00 | 39 | 32 | 78 | 30.11 | SE | 0 | 0.00 |
| 24 | 04/02 | 01:00 | 39 | 32 | 77 | 30.10 | SE | 1 | 0.00 |